sensor_id;sensor_type;location;lat;lon;timestamp;temperature;humidity
81136;DHT22;70622;50.886;3.890;2024-01-25T00:01:25;8.60;99.90
81136;DHT22;70622;50.886;3.890;2024-01-25T00:03:51;8.60;99.90
81136;DHT22;70622;50.886;3.890;2024-01-25T00:06:16;8.60;99.90
81136;DHT22;70622;50.886;3.890;2024-01-25T00:08:42;8.60;99.90
81136;DHT22;70622;50.886;3.890;2024-01-25T00:11:07;8.60;99.90
81136;DHT22;70622;50.886;3.890;2024-01-25T00:13:34;8.50;99.90
81136;DHT22;70622;50.886;3.890;2024-01-25T00:16:00;8.50;99.90
81136;DHT22;70622;50.886;3.890;2024-01-25T00:18:25;8.50;99.90
81136;DHT22;70622;50.886;3.890;2024-01-25T00:20:51;8.40;99.90
81136;DHT22;70622;50.886;3.890;2024-01-25T00:23:17;8.40;99.90
81136;DHT22;70622;50.886;3.890;2024-01-25T00:25:42;8.50;99.90
81136;DHT22;70622;50.886;3.890;2024-01-25T00:28:08;8.40;99.90
81136;DHT22;70622;50.886;3.890;2024-01-25T00:30:33;8.40;99.90
81136;DHT22;70622;50.886;3.890;2024-01-25T00:32:59;8.50;99.90
81136;DHT22;70622;50.886;3.890;2024-01-25T00:35:24;8.40;99.90
81136;DHT22;70622;50.886;3.890;2024-01-25T00:37:50;8.40;99.90
81136;DHT22;70622;50.886;3.890;2024-01-25T00:40:16;8.30;99.90
81136;DHT22;70622;50.886;3.890;2024-01-25T00:42:43;8.30;99.90
81136;DHT22;70622;50.886;3.890;2024-01-25T00:45:09;8.30;99.90
81136;DHT22;70622;50.886;3.890;2024-01-25T00:47:34;8.20;99.90
81136;DHT22;70622;50.886;3.890;2024-01-25T00:50:00;8.30;99.90
81136;DHT22;70622;50.886;3.890;2024-01-25T00:52:26;8.30;99.90
81136;DHT22;70622;50.886;3.890;2024-01-25T00:54:51;8.30;99.90
81136;DHT22;70622;50.886;3.890;2024-01-25T00:57:17;8.30;99.90
81136;DHT22;70622;50.886;3.890;2024-01-25T00:59:43;8.30;99.90
81136;DHT22;70622;50.886;3.890;2024-01-25T01:02:10;8.30;99.90
81136;DHT22;70622;50.886;3.890;2024-01-25T01:04:36;8.20;99.90
81136;DHT22;70622;50.886;3.890;2024-01-25T01:07:02;8.20;99.90
81136;DHT22;70622;50.886;3.890;2024-01-25T01:09:28;8.10;99.90
81136;DHT22;70622;50.886;3.890;2024-01-25T01:11:54;8.00;99.90
81136;DHT22;70622;50.886;3.890;2024-01-25T01:14:20;8.00;99.90
81136;DHT22;70622;50.886;3.890;2024-01-25T01:16:45;8.00;99.90
81136;DHT22;70622;50.886;3.890;2024-01-25T01:19:11;8.00;99.90
81136;DHT22;70622;50.886;3.890;2024-01-25T01:21:36;8.00;99.90
81136;DHT22;70622;50.886;3.890;2024-01-25T01:24:02;8.00;99.90
81136;DHT22;70622;50.886;3.890;2024-01-25T01:26:28;8.00;99.90
81136;DHT22;70622;50.886;3.890;2024-01-25T01:28:53;7.90;99.90
81136;DHT22;70622;50.886;3.890;2024-01-25T01:31:19;7.90;99.90
81136;DHT22;70622;50.886;3.890;2024-01-25T01:33:44;8.00;99.90
81136;DHT22;70622;50.886;3.890;2024-01-25T01:36:10;8.10;99.90
81136;DHT22;70622;50.886;3.890;2024-01-25T01:38:35;8.00;99.90
81136;DHT22;70622;50.886;3.890;2024-01-25T01:41:01;8.00;99.90
81136;DHT22;70622;50.886;3.890;2024-01-25T01:43:26;7.90;99.90
81136;DHT22;70622;50.886;3.890;2024-01-25T01:45:52;8.00;99.90
81136;DHT22;70622;50.886;3.890;2024-01-25T01:48:18;7.90;99.90
81136;DHT22;70622;50.886;3.890;2024-01-25T01:50:44;7.90;99.90
81136;DHT22;70622;50.886;3.890;2024-01-25T01:53:10;8.00;99.90
81136;DHT22;70622;50.886;3.890;2024-01-25T01:55:35;7.90;99.90
81136;DHT22;70622;50.886;3.890;2024-01-25T01:58:01;8.00;99.90
81136;DHT22;70622;50.886;3.890;2024-01-25T02:00:28;7.90;99.90
81136;DHT22;70622;50.886;3.890;2024-01-25T02:02:54;7.90;99.90
81136;DHT22;70622;50.886;3.890;2024-01-25T02:05:20;7.70;99.90
81136;DHT22;70622;50.886;3.890;2024-01-25T02:07:45;7.60;99.90
81136;DHT22;70622;50.886;3.890;2024-01-25T02:10:11;7.70;99.90
81136;DHT22;70622;50.886;3.890;2024-01-25T02:12:37;7.80;99.90
81136;DHT22;70622;50.886;3.890;2024-01-25T02:15:03;7.80;99.90
81136;DHT22;70622;50.886;3.890;2024-01-25T02:17:28;7.70;99.90
81136;DHT22;70622;50.886;3.890;2024-01-25T02:19:54;7.70;99.90
81136;DHT22;70622;50.886;3.890;2024-01-25T02:22:20;7.80;99.90
81136;DHT22;70622;50.886;3.890;2024-01-25T02:24:45;7.80;99.90
81136;DHT22;70622;50.886;3.890;2024-01-25T02:27:11;7.60;99.90
81136;DHT22;70622;50.886;3.890;2024-01-25T02:29:36;7.50;99.90
81136;DHT22;70622;50.886;3.890;2024-01-25T02:32:02;7.60;99.90
81136;DHT22;70622;50.886;3.890;2024-01-25T02:34:28;7.60;99.90
81136;DHT22;70622;50.886;3.890;2024-01-25T02:36:53;7.60;99.90
81136;DHT22;70622;50.886;3.890;2024-01-25T02:39:19;7.80;99.90
81136;DHT22;70622;50.886;3.890;2024-01-25T02:41:45;7.60;99.90
81136;DHT22;70622;50.886;3.890;2024-01-25T02:44:11;7.70;99.90
81136;DHT22;70622;50.886;3.890;2024-01-25T02:46:36;7.70;99.90
81136;DHT22;70622;50.886;3.890;2024-01-25T02:49:03;7.60;99.90
81136;DHT22;70622;50.886;3.890;2024-01-25T02:51:28;7.50;99.90
81136;DHT22;70622;50.886;3.890;2024-01-25T02:53:54;7.50;99.90
81136;DHT22;70622;50.886;3.890;2024-01-25T02:56:19;7.60;99.90
81136;DHT22;70622;50.886;3.890;2024-01-25T02:58:45;7.50;99.90
81136;DHT22;70622;50.886;3.890;2024-01-25T03:01:11;7.60;99.90
81136;DHT22;70622;50.886;3.890;2024-01-25T03:03:36;7.50;99.90
81136;DHT22;70622;50.886;3.890;2024-01-25T03:06:02;7.40;99.90
81136;DHT22;70622;50.886;3.890;2024-01-25T03:08:27;7.40;99.90
81136;DHT22;70622;50.886;3.890;2024-01-25T03:10:53;7.30;99.90
81136;DHT22;70622;50.886;3.890;2024-01-25T03:13:18;7.40;99.90
81136;DHT22;70622;50.886;3.890;2024-01-25T03:15:44;7.30;99.90
81136;DHT22;70622;50.886;3.890;2024-01-25T03:18:10;7.30;99.90
81136;DHT22;70622;50.886;3.890;2024-01-25T03:20:36;7.30;99.90
81136;DHT22;70622;50.886;3.890;2024-01-25T03:23:01;7.30;99.90
81136;DHT22;70622;50.886;3.890;2024-01-25T03:25:28;7.30;99.90
81136;DHT22;70622;50.886;3.890;2024-01-25T03:27:53;7.40;99.90
81136;DHT22;70622;50.886;3.890;2024-01-25T03:30:19;7.40;99.90
81136;DHT22;70622;50.886;3.890;2024-01-25T03:32:45;7.40;99.90
81136;DHT22;70622;50.886;3.890;2024-01-25T03:35:11;7.40;99.90
81136;DHT22;70622;50.886;3.890;2024-01-25T03:37:37;7.30;99.90
81136;DHT22;70622;50.886;3.890;2024-01-25T03:40:03;7.30;99.90
81136;DHT22;70622;50.886;3.890;2024-01-25T03:42:28;7.40;99.90
81136;DHT22;70622;50.886;3.890;2024-01-25T03:44:54;7.40;99.90
81136;DHT22;70622;50.886;3.890;2024-01-25T03:47:19;7.40;99.90
81136;DHT22;70622;50.886;3.890;2024-01-25T03:49:45;7.30;99.90
81136;DHT22;70622;50.886;3.890;2024-01-25T03:52:10;7.20;99.90
81136;DHT22;70622;50.886;3.890;2024-01-25T03:54:36;7.20;99.90
81136;DHT22;70622;50.886;3.890;2024-01-25T03:57:03;7.20;99.90
81136;DHT22;70622;50.886;3.890;2024-01-25T03:59:28;7.20;99.90
81136;DHT22;70622;50.886;3.890;2024-01-25T04:01:54;7.20;99.90
81136;DHT22;70622;50.886;3.890;2024-01-25T04:04:19;7.20;99.90
81136;DHT22;70622;50.886;3.890;2024-01-25T04:06:45;7.10;99.90
81136;DHT22;70622;50.886;3.890;2024-01-25T04:09:12;7.10;99.90
81136;DHT22;70622;50.886;3.890;2024-01-25T04:11:37;7.00;99.90
81136;DHT22;70622;50.886;3.890;2024-01-25T04:14:03;7.10;99.90
81136;DHT22;70622;50.886;3.890;2024-01-25T04:16:29;7.10;99.90
81136;DHT22;70622;50.886;3.890;2024-01-25T04:18:55;7.10;99.90
81136;DHT22;70622;50.886;3.890;2024-01-25T04:21:20;7.10;99.90
81136;DHT22;70622;50.886;3.890;2024-01-25T04:23:46;7.10;99.90
81136;DHT22;70622;50.886;3.890;2024-01-25T04:26:11;7.20;99.90
81136;DHT22;70622;50.886;3.890;2024-01-25T04:28:37;7.10;99.90
81136;DHT22;70622;50.886;3.890;2024-01-25T04:31:03;7.20;99.90
81136;DHT22;70622;50.886;3.890;2024-01-25T04:33:29;7.30;99.90
81136;DHT22;70622;50.886;3.890;2024-01-25T04:35:54;7.30;99.90
81136;DHT22;70622;50.886;3.890;2024-01-25T04:38:20;7.30;99.90
81136;DHT22;70622;50.886;3.890;2024-01-25T04:40:46;7.20;99.90
81136;DHT22;70622;50.886;3.890;2024-01-25T04:43:11;7.20;99.90
81136;DHT22;70622;50.886;3.890;2024-01-25T04:45:38;7.20;99.90
81136;DHT22;70622;50.886;3.890;2024-01-25T04:48:03;7.10;99.90
81136;DHT22;70622;50.886;3.890;2024-01-25T04:50:29;7.10;99.90
81136;DHT22;70622;50.886;3.890;2024-01-25T04:52:55;7.10;99.90
81136;DHT22;70622;50.886;3.890;2024-01-25T04:55:21;7.00;99.90
81136;DHT22;70622;50.886;3.890;2024-01-25T04:57:46;7.00;99.90
81136;DHT22;70622;50.886;3.890;2024-01-25T05:00:13;7.10;99.90
81136;DHT22;70622;50.886;3.890;2024-01-25T05:02:39;7.00;99.90
81136;DHT22;70622;50.886;3.890;2024-01-25T05:05:04;6.90;99.90
81136;DHT22;70622;50.886;3.890;2024-01-25T05:07:30;6.90;99.90
81136;DHT22;70622;50.886;3.890;2024-01-25T05:09:56;6.80;99.90
81136;DHT22;70622;50.886;3.890;2024-01-25T05:12:22;6.60;99.90
81136;DHT22;70622;50.886;3.890;2024-01-25T05:14:47;6.60;99.90
81136;DHT22;70622;50.886;3.890;2024-01-25T05:17:13;6.70;99.90
81136;DHT22;70622;50.886;3.890;2024-01-25T05:19:39;6.80;99.90
81136;DHT22;70622;50.886;3.890;2024-01-25T05:22:05;7.00;99.90
81136;DHT22;70622;50.886;3.890;2024-01-25T05:24:33;7.00;99.90
81136;DHT22;70622;50.886;3.890;2024-01-25T05:26:58;7.00;99.90
81136;DHT22;70622;50.886;3.890;2024-01-25T05:29:24;7.00;99.90
81136;DHT22;70622;50.886;3.890;2024-01-25T05:31:50;6.90;99.90
81136;DHT22;70622;50.886;3.890;2024-01-25T05:34:16;6.90;99.90
81136;DHT22;70622;50.886;3.890;2024-01-25T05:36:41;7.00;99.90
81136;DHT22;70622;50.886;3.890;2024-01-25T05:39:07;7.00;99.90
81136;DHT22;70622;50.886;3.890;2024-01-25T05:41:33;7.00;99.90
81136;DHT22;70622;50.886;3.890;2024-01-25T05:43:59;6.90;99.90
81136;DHT22;70622;50.886;3.890;2024-01-25T05:46:25;6.90;99.90
81136;DHT22;70622;50.886;3.890;2024-01-25T05:48:51;6.90;99.90
81136;DHT22;70622;50.886;3.890;2024-01-25T05:51:16;6.80;99.90
81136;DHT22;70622;50.886;3.890;2024-01-25T05:53:42;6.90;99.90
81136;DHT22;70622;50.886;3.890;2024-01-25T05:56:07;6.80;99.90
81136;DHT22;70622;50.886;3.890;2024-01-25T05:58:33;6.70;99.90
81136;DHT22;70622;50.886;3.890;2024-01-25T06:00:59;6.60;99.90
81136;DHT22;70622;50.886;3.890;2024-01-25T06:03:24;6.60;99.90
81136;DHT22;70622;50.886;3.890;2024-01-25T06:05:50;6.70;99.90
81136;DHT22;70622;50.886;3.890;2024-01-25T06:08:16;6.70;99.90
81136;DHT22;70622;50.886;3.890;2024-01-25T06:10:41;6.80;99.90
81136;DHT22;70622;50.886;3.890;2024-01-25T06:13:08;6.80;99.90
81136;DHT22;70622;50.886;3.890;2024-01-25T06:15:34;6.70;99.90
81136;DHT22;70622;50.886;3.890;2024-01-25T06:18:00;6.70;99.90
81136;DHT22;70622;50.886;3.890;2024-01-25T06:20:28;6.50;99.90
81136;DHT22;70622;50.886;3.890;2024-01-25T06:22:58;6.60;99.90
81136;DHT22;70622;50.886;3.890;2024-01-25T06:25:24;6.60;99.90
81136;DHT22;70622;50.886;3.890;2024-01-25T06:27:51;6.70;99.90
81136;DHT22;70622;50.886;3.890;2024-01-25T06:30:20;6.70;99.90
81136;DHT22;70622;50.886;3.890;2024-01-25T06:32:47;6.60;99.90
81136;DHT22;70622;50.886;3.890;2024-01-25T06:35:13;6.40;99.90
81136;DHT22;70622;50.886;3.890;2024-01-25T06:37:41;6.40;99.90
81136;DHT22;70622;50.886;3.890;2024-01-25T06:40:17;6.60;99.90
81136;DHT22;70622;50.886;3.890;2024-01-25T06:42:43;6.60;99.90
81136;DHT22;70622;50.886;3.890;2024-01-25T06:45:13;6.70;99.90
81136;DHT22;70622;50.886;3.890;2024-01-25T06:47:39;6.80;99.90
81136;DHT22;70622;50.886;3.890;2024-01-25T06:50:04;6.80;99.90
81136;DHT22;70622;50.886;3.890;2024-01-25T06:52:30;6.80;99.90
81136;DHT22;70622;50.886;3.890;2024-01-25T06:54:56;6.80;99.90
81136;DHT22;70622;50.886;3.890;2024-01-25T06:57:24;6.90;99.90
81136;DHT22;70622;50.886;3.890;2024-01-25T06:59:49;6.80;99.90
81136;DHT22;70622;50.886;3.890;2024-01-25T07:02:18;6.70;99.90
81136;DHT22;70622;50.886;3.890;2024-01-25T07:04:43;6.70;99.90
81136;DHT22;70622;50.886;3.890;2024-01-25T07:07:12;6.50;99.90
81136;DHT22;70622;50.886;3.890;2024-01-25T07:09:38;6.40;99.90
81136;DHT22;70622;50.886;3.890;2024-01-25T07:12:06;6.40;99.90
81136;DHT22;70622;50.886;3.890;2024-01-25T07:14:32;6.30;99.90
81136;DHT22;70622;50.886;3.890;2024-01-25T07:17:01;6.30;99.90
81136;DHT22;70622;50.886;3.890;2024-01-25T07:19:26;6.40;99.90
81136;DHT22;70622;50.886;3.890;2024-01-25T07:21:52;6.40;99.90
81136;DHT22;70622;50.886;3.890;2024-01-25T07:24:18;6.40;99.90
81136;DHT22;70622;50.886;3.890;2024-01-25T07:26:44;6.40;99.90
81136;DHT22;70622;50.886;3.890;2024-01-25T07:29:10;6.30;99.90
81136;DHT22;70622;50.886;3.890;2024-01-25T07:31:35;6.30;99.90
81136;DHT22;70622;50.886;3.890;2024-01-25T07:34:04;6.30;99.90
81136;DHT22;70622;50.886;3.890;2024-01-25T07:39:15;6.40;99.90
81136;DHT22;70622;50.886;3.890;2024-01-25T07:41:47;6.30;99.90
81136;DHT22;70622;50.886;3.890;2024-01-25T07:44:13;6.40;99.90
81136;DHT22;70622;50.886;3.890;2024-01-25T07:46:38;6.40;99.90
81136;DHT22;70622;50.886;3.890;2024-01-25T07:49:07;6.40;99.90
81136;DHT22;70622;50.886;3.890;2024-01-25T07:51:32;6.40;99.90
81136;DHT22;70622;50.886;3.890;2024-01-25T07:53:58;6.40;99.90
81136;DHT22;70622;50.886;3.890;2024-01-25T07:56:23;6.50;99.90
81136;DHT22;70622;50.886;3.890;2024-01-25T07:58:49;6.50;99.90
81136;DHT22;70622;50.886;3.890;2024-01-25T08:01:18;6.70;99.90
81136;DHT22;70622;50.886;3.890;2024-01-25T08:03:44;6.90;99.90
81136;DHT22;70622;50.886;3.890;2024-01-25T08:06:10;6.90;99.90
81136;DHT22;70622;50.886;3.890;2024-01-25T08:08:35;7.10;99.90
81136;DHT22;70622;50.886;3.890;2024-01-25T08:11:01;7.10;99.90
81136;DHT22;70622;50.886;3.890;2024-01-25T08:13:26;7.20;99.90
81136;DHT22;70622;50.886;3.890;2024-01-25T08:15:53;7.10;99.90
81136;DHT22;70622;50.886;3.890;2024-01-25T08:18:19;7.20;99.90
81136;DHT22;70622;50.886;3.890;2024-01-25T08:20:45;7.30;99.90
81136;DHT22;70622;50.886;3.890;2024-01-25T08:23:10;7.40;99.90
81136;DHT22;70622;50.886;3.890;2024-01-25T08:25:37;7.50;99.90
81136;DHT22;70622;50.886;3.890;2024-01-25T08:28:02;7.60;99.90
81136;DHT22;70622;50.886;3.890;2024-01-25T08:30:28;7.80;99.90
81136;DHT22;70622;50.886;3.890;2024-01-25T08:32:55;7.90;99.90
81136;DHT22;70622;50.886;3.890;2024-01-25T08:35:20;8.00;99.90
81136;DHT22;70622;50.886;3.890;2024-01-25T08:37:46;8.10;99.90
81136;DHT22;70622;50.886;3.890;2024-01-25T08:40:12;8.10;99.90
81136;DHT22;70622;50.886;3.890;2024-01-25T08:42:37;8.20;99.90
81136;DHT22;70622;50.886;3.890;2024-01-25T08:45:03;8.30;99.90
81136;DHT22;70622;50.886;3.890;2024-01-25T08:47:30;8.40;99.90
81136;DHT22;70622;50.886;3.890;2024-01-25T08:49:57;8.40;99.90
81136;DHT22;70622;50.886;3.890;2024-01-25T08:52:22;8.50;99.90
81136;DHT22;70622;50.886;3.890;2024-01-25T08:54:49;8.60;99.90
81136;DHT22;70622;50.886;3.890;2024-01-25T08:57:14;8.50;99.90
81136;DHT22;70622;50.886;3.890;2024-01-25T08:59:41;8.50;99.90
81136;DHT22;70622;50.886;3.890;2024-01-25T09:02:09;8.50;99.90
81136;DHT22;70622;50.886;3.890;2024-01-25T09:04:35;8.50;99.90
81136;DHT22;70622;50.886;3.890;2024-01-25T09:07:01;8.50;99.90
81136;DHT22;70622;50.886;3.890;2024-01-25T09:09:27;8.50;99.90
81136;DHT22;70622;50.886;3.890;2024-01-25T09:11:53;8.60;99.90
81136;DHT22;70622;50.886;3.890;2024-01-25T09:14:19;8.70;99.90
81136;DHT22;70622;50.886;3.890;2024-01-25T09:16:45;8.70;99.90
81136;DHT22;70622;50.886;3.890;2024-01-25T09:19:11;8.80;99.90
81136;DHT22;70622;50.886;3.890;2024-01-25T09:21:40;8.80;99.90
81136;DHT22;70622;50.886;3.890;2024-01-25T09:24:05;8.90;99.90
81136;DHT22;70622;50.886;3.890;2024-01-25T09:26:32;9.00;99.90
81136;DHT22;70622;50.886;3.890;2024-01-25T09:28:58;9.10;99.90
81136;DHT22;70622;50.886;3.890;2024-01-25T09:31:32;9.10;99.90
81136;DHT22;70622;50.886;3.890;2024-01-25T09:34:07;9.20;99.90
81136;DHT22;70622;50.886;3.890;2024-01-25T09:36:32;9.10;99.90
81136;DHT22;70622;50.886;3.890;2024-01-25T09:39:01;9.00;99.90
81136;DHT22;70622;50.886;3.890;2024-01-25T09:41:26;9.20;99.90
81136;DHT22;70622;50.886;3.890;2024-01-25T09:43:52;9.30;99.90
81136;DHT22;70622;50.886;3.890;2024-01-25T09:46:18;9.40;99.90
81136;DHT22;70622;50.886;3.890;2024-01-25T09:48:44;9.40;99.90
81136;DHT22;70622;50.886;3.890;2024-01-25T09:51:11;9.60;99.90
81136;DHT22;70622;50.886;3.890;2024-01-25T09:53:42;9.70;99.90
81136;DHT22;70622;50.886;3.890;2024-01-25T09:56:09;9.80;99.90
81136;DHT22;70622;50.886;3.890;2024-01-25T09:58:39;9.90;99.90
81136;DHT22;70622;50.886;3.890;2024-01-25T10:01:10;10.10;99.90
81136;DHT22;70622;50.886;3.890;2024-01-25T10:03:36;10.20;99.90
81136;DHT22;70622;50.886;3.890;2024-01-25T10:06:02;10.40;99.90
81136;DHT22;70622;50.886;3.890;2024-01-25T10:08:29;10.40;99.90
81136;DHT22;70622;50.886;3.890;2024-01-25T10:10:54;10.50;99.90
81136;DHT22;70622;50.886;3.890;2024-01-25T10:13:20;10.60;99.90
81136;DHT22;70622;50.886;3.890;2024-01-25T10:15:45;10.40;99.90
81136;DHT22;70622;50.886;3.890;2024-01-25T10:18:13;10.40;99.90
81136;DHT22;70622;50.886;3.890;2024-01-25T10:20:44;10.30;99.90
81136;DHT22;70622;50.886;3.890;2024-01-25T10:23:10;10.30;99.90
81136;DHT22;70622;50.886;3.890;2024-01-25T10:25:36;10.30;99.90
81136;DHT22;70622;50.886;3.890;2024-01-25T10:28:05;10.30;99.90
81136;DHT22;70622;50.886;3.890;2024-01-25T10:30:31;10.20;99.90
81136;DHT22;70622;50.886;3.890;2024-01-25T10:32:57;10.10;99.90
81136;DHT22;70622;50.886;3.890;2024-01-25T10:35:23;10.20;99.90
81136;DHT22;70622;50.886;3.890;2024-01-25T10:37:49;10.30;99.90
81136;DHT22;70622;50.886;3.890;2024-01-25T10:40:15;10.30;99.90
81136;DHT22;70622;50.886;3.890;2024-01-25T10:42:43;10.40;99.90
81136;DHT22;70622;50.886;3.890;2024-01-25T10:45:08;10.50;99.90
81136;DHT22;70622;50.886;3.890;2024-01-25T10:47:35;10.60;99.90
81136;DHT22;70622;50.886;3.890;2024-01-25T10:50:01;10.60;99.90
81136;DHT22;70622;50.886;3.890;2024-01-25T10:52:28;10.70;99.90
81136;DHT22;70622;50.886;3.890;2024-01-25T10:54:57;10.70;99.90
81136;DHT22;70622;50.886;3.890;2024-01-25T10:57:23;10.80;99.90
81136;DHT22;70622;50.886;3.890;2024-01-25T10:59:49;10.70;99.90
81136;DHT22;70622;50.886;3.890;2024-01-25T11:02:17;10.60;99.90
81136;DHT22;70622;50.886;3.890;2024-01-25T11:04:51;10.70;99.90
81136;DHT22;70622;50.886;3.890;2024-01-25T11:07:20;10.90;99.90
81136;DHT22;70622;50.886;3.890;2024-01-25T11:09:46;10.90;99.90
81136;DHT22;70622;50.886;3.890;2024-01-25T11:12:17;10.90;99.90
81136;DHT22;70622;50.886;3.890;2024-01-25T11:14:45;11.00;99.90
81136;DHT22;70622;50.886;3.890;2024-01-25T11:17:20;11.10;99.90
81136;DHT22;70622;50.886;3.890;2024-01-25T11:19:49;11.30;99.90
81136;DHT22;70622;50.886;3.890;2024-01-25T11:22:21;11.20;99.90
81136;DHT22;70622;50.886;3.890;2024-01-25T11:24:47;11.10;99.90
81136;DHT22;70622;50.886;3.890;2024-01-25T11:27:13;10.90;99.90
81136;DHT22;70622;50.886;3.890;2024-01-25T11:29:40;11.00;99.90
81136;DHT22;70622;50.886;3.890;2024-01-25T11:32:07;10.90;99.90
81136;DHT22;70622;50.886;3.890;2024-01-25T11:34:34;11.00;99.90
81136;DHT22;70622;50.886;3.890;2024-01-25T11:37:00;10.90;99.90
81136;DHT22;70622;50.886;3.890;2024-01-25T11:39:25;11.00;99.90
81136;DHT22;70622;50.886;3.890;2024-01-25T11:41:51;11.00;99.90
81136;DHT22;70622;50.886;3.890;2024-01-25T11:44:17;10.70;99.90
81136;DHT22;70622;50.886;3.890;2024-01-25T11:46:45;10.60;99.90
81136;DHT22;70622;50.886;3.890;2024-01-25T11:49:30;10.60;99.90
81136;DHT22;70622;50.886;3.890;2024-01-25T11:51:58;10.70;99.90
81136;DHT22;70622;50.886;3.890;2024-01-25T11:54:24;10.60;99.90
81136;DHT22;70622;50.886;3.890;2024-01-25T11:59:40;10.70;99.90
81136;DHT22;70622;50.886;3.890;2024-01-25T12:02:18;10.70;99.90
81136;DHT22;70622;50.886;3.890;2024-01-25T12:04:56;10.80;99.90
81136;DHT22;70622;50.886;3.890;2024-01-25T12:07:26;10.90;99.90
81136;DHT22;70622;50.886;3.890;2024-01-25T12:10:16;10.80;99.90
81136;DHT22;70622;50.886;3.890;2024-01-25T12:12:43;10.80;99.90
81136;DHT22;70622;50.886;3.890;2024-01-25T12:15:08;10.80;99.90
81136;DHT22;70622;50.886;3.890;2024-01-25T12:17:36;10.70;99.90
81136;DHT22;70622;50.886;3.890;2024-01-25T12:20:05;10.60;99.90
81136;DHT22;70622;50.886;3.890;2024-01-25T12:22:36;10.50;99.90
81136;DHT22;70622;50.886;3.890;2024-01-25T12:25:08;10.40;99.90
81136;DHT22;70622;50.886;3.890;2024-01-25T12:27:40;10.60;99.90
81136;DHT22;70622;50.886;3.890;2024-01-25T12:30:06;10.60;99.90
81136;DHT22;70622;50.886;3.890;2024-01-25T12:32:33;10.50;99.90
81136;DHT22;70622;50.886;3.890;2024-01-25T12:35:01;10.70;99.90
81136;DHT22;70622;50.886;3.890;2024-01-25T12:37:29;10.70;99.90
81136;DHT22;70622;50.886;3.890;2024-01-25T12:40:15;10.80;99.90
81136;DHT22;70622;50.886;3.890;2024-01-25T12:42:40;11.00;99.90
81136;DHT22;70622;50.886;3.890;2024-01-25T12:45:11;11.00;99.90
81136;DHT22;70622;50.886;3.890;2024-01-25T12:47:37;10.90;99.90
81136;DHT22;70622;50.886;3.890;2024-01-25T12:50:05;10.70;99.90
81136;DHT22;70622;50.886;3.890;2024-01-25T12:52:31;10.70;99.90
81136;DHT22;70622;50.886;3.890;2024-01-25T12:54:59;10.70;99.90
81136;DHT22;70622;50.886;3.890;2024-01-25T12:57:28;10.90;99.90
81136;DHT22;70622;50.886;3.890;2024-01-25T12:59:53;11.10;99.90
81136;DHT22;70622;50.886;3.890;2024-01-25T13:02:21;11.20;99.90
81136;DHT22;70622;50.886;3.890;2024-01-25T13:04:46;11.40;99.90
81136;DHT22;70622;50.886;3.890;2024-01-25T13:48:30;11.70;99.90
81136;DHT22;70622;50.886;3.890;2024-01-25T14:02:16;11.70;99.90
81136;DHT22;70622;50.886;3.890;2024-01-25T14:04:42;11.80;99.90
81136;DHT22;70622;50.886;3.890;2024-01-25T14:07:11;11.60;99.90
81136;DHT22;70622;50.886;3.890;2024-01-25T14:09:53;11.50;99.90
81136;DHT22;70622;50.886;3.890;2024-01-25T14:18:11;11.40;99.90
81136;DHT22;70622;50.886;3.890;2024-01-25T14:20:46;11.20;99.90
81136;DHT22;70622;50.886;3.890;2024-01-25T14:46:32;11.70;99.90
81136;DHT22;70622;50.886;3.890;2024-01-25T14:48:58;11.50;99.90
81136;DHT22;70622;50.886;3.890;2024-01-25T15:48:57;11.20;99.90
81136;DHT22;70622;50.886;3.890;2024-01-25T15:59:10;11.20;99.90
81136;DHT22;70622;50.886;3.890;2024-01-25T16:02:02;11.20;99.90
81136;DHT22;70622;50.886;3.890;2024-01-25T16:04:30;11.10;99.90
81136;DHT22;70622;50.886;3.890;2024-01-25T16:06:58;11.10;99.90
81136;DHT22;70622;50.886;3.890;2024-01-25T16:09:23;11.10;99.90
81136;DHT22;70622;50.886;3.890;2024-01-25T16:11:51;11.10;99.90
81136;DHT22;70622;50.886;3.890;2024-01-25T16:14:17;11.00;99.90
81136;DHT22;70622;50.886;3.890;2024-01-25T16:16:42;11.10;99.90
81136;DHT22;70622;50.886;3.890;2024-01-25T16:19:08;11.00;99.90
81136;DHT22;70622;50.886;3.890;2024-01-25T16:21:34;11.10;99.90
81136;DHT22;70622;50.886;3.890;2024-01-25T16:23:59;11.00;99.90
81136;DHT22;70622;50.886;3.890;2024-01-25T16:26:25;11.00;99.90
81136;DHT22;70622;50.886;3.890;2024-01-25T16:36:45;10.80;99.90
81136;DHT22;70622;50.886;3.890;2024-01-25T16:39:14;10.90;99.90
81136;DHT22;70622;50.886;3.890;2024-01-25T16:41:41;10.70;99.90
81136;DHT22;70622;50.886;3.890;2024-01-25T16:44:07;10.80;99.90
81136;DHT22;70622;50.886;3.890;2024-01-25T16:46:35;10.70;99.90
81136;DHT22;70622;50.886;3.890;2024-01-25T16:51:39;10.80;99.90
81136;DHT22;70622;50.886;3.890;2024-01-25T16:56:32;10.80;99.90
81136;DHT22;70622;50.886;3.890;2024-01-25T16:58:58;10.80;99.90
81136;DHT22;70622;50.886;3.890;2024-01-25T17:01:24;10.90;99.90
81136;DHT22;70622;50.886;3.890;2024-01-25T17:03:50;10.90;99.90
81136;DHT22;70622;50.886;3.890;2024-01-25T17:06:15;11.00;99.90
81136;DHT22;70622;50.886;3.890;2024-01-25T17:08:41;10.90;99.90
81136;DHT22;70622;50.886;3.890;2024-01-25T17:34:17;11.00;99.90
81136;DHT22;70622;50.886;3.890;2024-01-25T17:36:43;11.00;99.90
81136;DHT22;70622;50.886;3.890;2024-01-25T18:14:33;10.90;99.90
81136;DHT22;70622;50.886;3.890;2024-01-25T18:16:59;10.90;99.90
81136;DHT22;70622;50.886;3.890;2024-01-25T18:19:33;10.90;99.90
81136;DHT22;70622;50.886;3.890;2024-01-25T18:22:02;10.90;99.90
81136;DHT22;70622;50.886;3.890;2024-01-25T18:27:03;10.90;99.90
81136;DHT22;70622;50.886;3.890;2024-01-25T19:09:12;11.10;99.90
81136;DHT22;70622;50.886;3.890;2024-01-25T19:11:37;11.10;99.90
81136;DHT22;70622;50.886;3.890;2024-01-25T19:14:03;11.00;99.90
81136;DHT22;70622;50.886;3.890;2024-01-25T19:16:28;11.00;99.90
81136;DHT22;70622;50.886;3.890;2024-01-25T19:19:01;11.00;99.90
81136;DHT22;70622;50.886;3.890;2024-01-25T19:55:33;11.20;99.90
81136;DHT22;70622;50.886;3.890;2024-01-25T19:57:59;11.20;99.90
81136;DHT22;70622;50.886;3.890;2024-01-25T20:00:28;11.10;99.90
81136;DHT22;70622;50.886;3.890;2024-01-25T20:02:56;11.10;99.90
81136;DHT22;70622;50.886;3.890;2024-01-25T20:05:22;11.20;99.90
81136;DHT22;70622;50.886;3.890;2024-01-25T20:07:47;11.10;99.90
81136;DHT22;70622;50.886;3.890;2024-01-25T20:10:13;11.10;99.90
81136;DHT22;70622;50.886;3.890;2024-01-25T20:12:39;11.10;99.90
81136;DHT22;70622;50.886;3.890;2024-01-25T20:52:55;11.30;99.90
81136;DHT22;70622;50.886;3.890;2024-01-25T20:55:20;11.20;99.90
81136;DHT22;70622;50.886;3.890;2024-01-25T20:57:46;11.20;99.90
81136;DHT22;70622;50.886;3.890;2024-01-25T21:00:14;11.20;99.90
81136;DHT22;70622;50.886;3.890;2024-01-25T21:02:40;11.20;99.90
81136;DHT22;70622;50.886;3.890;2024-01-25T21:05:06;11.20;99.90
81136;DHT22;70622;50.886;3.890;2024-01-25T21:07:32;11.20;99.90
81136;DHT22;70622;50.886;3.890;2024-01-25T21:09:58;11.10;99.90
81136;DHT22;70622;50.886;3.890;2024-01-25T21:12:23;11.20;99.90
81136;DHT22;70622;50.886;3.890;2024-01-25T21:14:51;11.20;99.90